Time;durP1;ratioP1;P1;durP2;ratioP2;P2;SDS_P1;SDS_P2;PMS_P1;PMS_P2;Temp;Humidity;BMP_temperature;BMP_pressure;BME280_temperature;BME280_humidity;BME280_pressure;Samples;Min_cycle;Max_cycle;Signal;HPM_P1;HPM_P2
2022/06/11 00:00:55;;;;;;;26.80;22.80;;;;;;;20.43;72.67;98795.00;5027867;28;20036;-92
2022/06/11 00:03:21;;;;;;;30.67;24.30;;;;;;;20.53;73.01;98787.81;5032698;28;20029;-91
2022/06/11 00:05:47;;;;;;;30.63;26.63;;;;;;;20.78;73.43;98829.25;5032597;28;20021;-91
2022/06/11 00:08:12;;;;;;;27.13;23.50;;;;;;;20.25;73.45;98751.47;5051805;28;20017;-90
2022/06/11 00:10:38;;;;;;;26.08;22.70;;;;;;;21.04;74.04;98873.94;5051595;28;20030;-87
2022/06/11 00:13:04;;;;;;;25.77;22.83;;;;;;;21.05;74.09;98878.22;5037881;28;20490;-89
2022/06/11 00:15:31;;;;;;;22.60;20.27;;;;;;;20.73;74.27;98827.34;5033445;28;20021;-88
2022/06/11 00:17:57;;;;;;;23.05;20.85;;;;;;;21.05;73.96;98864.81;5031926;28;20482;-88
2022/06/11 00:20:25;;;;;;;24.58;22.08;;;;;;;20.50;73.86;98782.19;5032976;28;20032;-89
2022/06/11 00:22:51;;;;;;;25.08;21.92;;;;;;;20.91;74.25;98834.16;5031972;28;20033;-88
2022/06/11 00:25:18;;;;;;;26.13;23.42;;;;;;;21.10;74.18;98859.47;5031774;28;20064;-87
2022/06/11 00:27:44;;;;;;;26.45;23.75;;;;;;;21.11;74.16;98849.53;5032830;28;20028;-88
2022/06/11 00:30:11;;;;;;;28.63;25.73;;;;;;;20.94;74.07;98839.00;5031478;28;20406;-87
2022/06/11 00:32:38;;;;;;;27.30;24.40;;;;;;;20.10;74.18;98713.84;5031472;28;20101;-87
2022/06/11 00:35:05;;;;;;;28.40;25.20;;;;;;;19.61;74.20;98646.31;5031350;28;20041;-87
2022/06/11 00:37:32;;;;;;;28.77;25.83;;;;;;;20.54;74.21;98789.44;5031311;28;20096;-87
2022/06/11 00:39:58;;;;;;;29.25;25.67;;;;;;;20.67;74.14;98801.56;5031384;28;20091;-86
2022/06/11 00:42:28;;;;;;;28.08;25.23;;;;;;;20.54;73.84;98796.69;5031384;28;20025;-87
2022/06/11 00:45:44;;;;;;;24.30;21.80;;;;;;;20.98;73.71;98855.38;5044139;28;20060;-87
2022/06/11 00:48:22;;;;;;;28.90;25.98;;;;;;;20.92;74.10;98841.13;5048903;28;20037;-85
2022/06/11 00:50:50;;;;;;;29.55;25.63;;;;;;;21.10;74.30;98862.13;5037168;28;20478;-87
2022/06/11 00:53:42;;;;;;;28.48;25.48;;;;;;;21.09;74.00;98857.84;5030943;28;20026;-88
2022/06/11 00:56:31;;;;;;;27.00;24.15;;;;;;;21.01;74.17;98858.34;5030718;28;20045;-88
2022/06/11 00:58:59;;;;;;;27.67;24.80;;;;;;;20.65;73.90;98802.91;5030997;28;20025;-87
2022/06/11 01:01:25;;;;;;;30.02;26.83;;;;;;;21.14;73.92;98882.03;5030812;28;20116;-88
2022/06/11 01:03:59;;;;;;;28.35;25.45;;;;;;;21.12;74.04;98888.72;5032062;28;20027;-87
2022/06/11 01:06:36;;;;;;;27.40;24.50;;;;;;;21.13;73.89;98876.91;5030997;28;20136;-87
2022/06/11 01:09:10;;;;;;;29.58;26.70;;;;;;;21.12;74.19;98872.63;5031039;28;20057;-86
2022/06/11 01:11:42;;;;;;;29.02;26.02;;;;;;;21.14;74.12;98879.34;5030685;28;20021;-87
2022/06/11 01:14:07;;;;;;;30.08;25.88;;;;;;;21.15;74.16;98886.31;5032001;28;20518;-86
2022/06/11 01:16:36;;;;;;;35.53;32.05;;;;;;;21.13;73.91;98885.78;5031483;28;20021;-87
2022/06/11 01:19:10;;;;;;;35.17;31.45;;;;;;;21.14;73.84;98881.22;5030554;28;20029;-86
2022/06/11 01:21:54;;;;;;;36.63;32.63;;;;;;;21.13;73.96;98879.59;5031745;28;20052;-86
2022/06/11 01:24:53;;;;;;;40.28;35.65;;;;;;;21.16;73.93;98874.50;5031782;28;20387;-88
2022/06/11 01:27:55;;;;;;;36.00;32.40;;;;;;;21.17;73.72;98881.50;5030659;28;20119;-88
2022/06/11 01:30:31;;;;;;;41.92;35.25;;;;;;;21.04;73.60;98867.75;5031653;28;20490;-88
2022/06/11 01:33:12;;;;;;;38.03;33.78;;;;;;;21.17;73.59;98880.69;5030289;28;20036;-88
2022/06/11 01:35:56;;;;;;;35.95;30.38;;;;;;;21.16;73.77;98868.34;5031608;28;20029;-88
2022/06/11 01:38:52;;;;;;;34.75;30.92;;;;;;;21.02;73.50;98838.50;5031361;28;20414;-88
2022/06/11 01:41:24;;;;;;;35.50;31.70;;;;;;;21.13;73.48;98863.50;5026852;28;20032;-88
2022/06/11 01:43:53;;;;;;;;;;;;;;;20.94;74.40;98863.97;5031807;28;20104;-88
2022/06/11 01:46:28;;;;;;;35.83;32.05;;;;;;;20.69;73.65;98822.75;5031425;28;19909;-88
2022/06/11 01:49:01;;;;;;;36.97;32.80;;;;;;;21.09;73.44;98867.78;5031455;28;20026;-88
2022/06/11 01:51:36;;;;;;;36.15;32.28;;;;;;;21.04;73.54;98868.56;5031266;28;20549;-88
2022/06/11 01:54:14;;;;;;;39.28;35.17;;;;;;;21.01;73.67;98873.66;5031453;28;20109;-87
2022/06/11 01:56:49;;;;;;;39.03;35.00;;;;;;;21.01;73.86;98871.78;5031227;28;20080;-88
2022/06/11 01:59:26;;;;;;;40.47;36.03;;;;;;;21.04;73.79;98865.06;5031534;28;20084;-87
2022/06/11 02:01:55;;;;;;;37.17;33.20;;;;;;;21.06;74.08;98849.50;5038747;28;20029;-88
2022/06/11 02:04:29;;;;;;;34.45;30.95;;;;;;;21.05;73.84;98861.31;5036902;28;20409;-87
2022/06/11 02:07:30;;;;;;;31.38;28.30;;;;;;;20.99;73.82;98863.16;5037390;28;20032;-87
2022/06/11 02:10:11;;;;;;;31.83;28.42;;;;;;;20.80;73.93;98838.63;5039817;28;20041;-86
2022/06/11 02:12:47;;;;;;;31.88;28.70;;;;;;;20.95;74.00;98854.03;5037631;28;20026;-89
2022/06/11 02:15:25;;;;;;;31.50;28.10;;;;;;;20.99;73.75;98859.69;5033879;28;20029;-88
2022/06/11 02:17:56;;;;;;;33.35;29.88;;;;;;;20.98;73.94;98858.88;5031168;28;20105;-88
2022/06/11 02:20:29;;;;;;;32.33;28.85;;;;;;;20.75;73.63;98829.75;5031152;28;20095;-89
2022/06/11 02:23:06;;;;;;;30.38;27.33;;;;;;;21.00;73.84;98858.59;5031176;28;20036;-88
2022/06/11 02:25:42;;;;;;;32.60;28.48;;;;;;;20.98;74.08;98845.44;5029512;28;20545;-88
2022/06/11 02:28:12;;;;;;;31.67;28.58;;;;;;;20.88;73.89;98837.38;5031942;28;20422;-87
2022/06/11 02:30:40;;;;;;;30.98;27.75;;;;;;;20.85;73.87;98833.31;5035218;28;20025;-88
2022/06/11 02:33:09;;;;;;;34.95;30.15;;;;;;;20.90;73.93;98837.91;5033580;28;20414;-88
2022/06/11 02:35:38;;;;;;;34.83;31.10;;;;;;;21.02;73.81;98865.31;5033556;28;20014;-88
2022/06/11 02:38:06;;;;;;;31.83;28.60;;;;;;;21.00;73.95;98859.41;5034804;28;20621;-89
2022/06/11 02:40:37;;;;;;;34.03;30.40;;;;;;;21.00;73.77;98859.41;5033542;28;20410;-89
2022/06/11 02:43:02;;;;;;;33.60;30.20;;;;;;;20.95;73.72;98878.19;5034748;28;20036;-89
2022/06/11 02:45:28;;;;;;;34.25;30.58;;;;;;;20.40;73.95;98784.81;5034868;28;20030;-88
2022/06/11 02:47:54;;;;;;;36.75;32.75;;;;;;;20.66;74.16;98815.25;5034751;28;20021;-88
2022/06/11 02:50:29;;;;;;;37.15;33.13;;;;;;;21.02;74.22;98851.91;5033249;28;20025;-88
2022/06/11 02:52:55;;;;;;;35.80;31.92;;;;;;;20.43;74.03;98750.22;5033316;28;20033;-87
2022/06/11 02:55:21;;;;;;;32.95;29.55;;;;;;;21.07;73.91;98853.81;5034269;28;20041;-88
2022/06/11 02:57:47;;;;;;;33.78;30.02;;;;;;;20.98;74.16;98833.91;5035083;28;20048;-88
2022/06/11 03:00:17;;;;;;;34.05;30.58;;;;;;;21.06;73.97;98841.44;5033111;28;20494;-88
2022/06/11 03:02:46;;;;;;;35.53;31.98;;;;;;;21.06;74.17;98839.56;5033116;28;20036;-88
2022/06/11 03:05:15;;;;;;;33.83;30.33;;;;;;;20.35;74.28;98721.22;5032973;28;20029;-89
2022/06/11 03:07:41;;;;;;;32.95;29.48;;;;;;;20.42;74.07;98737.09;5033010;28;20026;-88
2022/06/11 03:10:06;;;;;;;33.85;30.27;;;;;;;20.27;73.94;98722.50;5033037;28;20028;-88
2022/06/11 03:12:32;;;;;;;34.30;30.60;;;;;;;20.33;74.02;98730.59;5032872;28;20457;-88
2022/06/11 03:14:58;;;;;;;33.08;29.65;;;;;;;20.35;73.90;98731.13;5034029;28;20446;-88
2022/06/11 03:17:23;;;;;;;35.05;31.38;;;;;;;20.71;74.03;98813.38;5032822;28;20513;-88
2022/06/11 03:19:49;;;;;;;31.42;28.00;;;;;;;20.87;73.97;98835.75;5032845;28;20405;-88
2022/06/11 03:22:17;;;;;;;33.88;30.20;;;;;;;20.39;73.95;98742.94;5034304;28;20025;-87
2022/06/11 03:24:42;;;;;;;34.20;30.55;;;;;;;20.54;73.95;98772.53;5032486;28;20028;-88
2022/06/11 03:27:08;;;;;;;33.60;29.83;;;;;;;20.12;73.86;98708.22;5032567;28;20025;-88
2022/06/11 03:29:33;;;;;;;33.63;29.98;;;;;;;20.53;73.92;98769.06;5032659;28;20048;-88
2022/06/11 03:31:59;;;;;;;32.72;28.95;;;;;;;20.59;73.95;98764.50;5032498;28;20025;-88
2022/06/11 03:34:24;;;;;;;31.13;27.98;;;;;;;20.86;73.95;98801.94;5032399;28;20075;-88
2022/06/11 03:36:52;;;;;;;32.40;29.05;;;;;;;20.61;73.88;98765.06;5033674;28;20053;-88
2022/06/11 03:39:18;;;;;;;33.95;30.52;;;;;;;21.03;73.56;98832.06;5032389;28;20021;-88
2022/06/11 03:41:44;;;;;;;35.65;31.52;;;;;;;20.63;73.62;98771.78;5033786;28;20030;-88
2022/06/11 03:44:11;;;;;;;33.15;28.63;;;;;;;20.28;73.64;98721.44;5032138;28;20029;-88
2022/06/11 03:46:36;;;;;;;33.97;30.50;;;;;;;20.61;73.71;98773.09;5032248;28;20036;-88
2022/06/11 03:49:02;;;;;;;32.53;29.08;;;;;;;21.17;73.82;98861.91;5031991;28;20402;-88
2022/06/11 03:51:28;;;;;;;32.15;28.83;;;;;;;20.62;73.95;98788.13;5033243;28;20094;-88
2022/06/11 03:53:53;;;;;;;29.23;26.23;;;;;;;20.71;73.82;98808.00;5032117;28;20112;-88
2022/06/11 03:56:19;;;;;;;33.50;29.83;;;;;;;21.22;73.96;98872.66;5033303;28;20057;-88
2022/06/11 03:58:47;;;;;;;34.75;29.65;;;;;;;21.25;73.72;98883.69;5032166;28;20021;-88
2022/06/11 04:01:16;;;;;;;33.42;29.95;;;;;;;21.13;73.56;98882.28;5033238;28;20036;-89
2022/06/11 04:03:57;;;;;;;33.72;30.10;;;;;;;21.21;73.30;98882.59;5032306;28;20383;-88
2022/06/11 04:06:26;;;;;;;34.28;30.95;;;;;;;21.21;73.70;98889.81;5033343;28;20040;-89
2022/06/11 04:08:52;;;;;;;36.38;32.47;;;;;;;20.81;73.73;98834.91;5033307;28;20119;-87
2022/06/11 04:11:19;;;;;;;43.15;38.28;;;;;;;20.94;73.71;98855.09;5032015;28;20060;-88
2022/06/11 04:13:46;;;;;;;42.10;37.58;;;;;;;20.96;73.89;98863.69;5034517;28;20030;-87
2022/06/11 04:16:45;;;;;;;54.40;44.05;;;;;;;20.75;73.44;98819.84;5049220;28;20021;-87
2022/06/11 04:19:22;;;;;;;46.88;41.58;;;;;;;20.60;73.82;98803.69;5050146;28;20040;-88
2022/06/11 04:21:48;;;;;;;49.45;41.90;;;;;;;20.89;73.72;98855.88;5049837;28;20028;-88
2022/06/11 04:24:15;;;;;;;47.10;38.42;;;;;;;21.19;73.66;98900.03;5048179;28;20029;-86
2022/06/11 04:26:45;;;;;;;44.20;39.60;;;;;;;21.16;73.34;98903.22;5047766;28;20802;-88
2022/06/11 04:29:13;;;;;;;50.78;42.72;;;;;;;21.19;73.33;98905.38;5044756;28;20035;-88
2022/06/11 04:31:39;;;;;;;48.08;41.08;;;;;;;20.90;73.29;98878.97;5032634;28;20453;-88
2022/06/11 04:34:05;;;;;;;51.90;43.42;;;;;;;20.74;73.32;98834.31;5031404;28;20121;-88
2022/06/11 04:36:33;;;;;;;65.35;50.33;;;;;;;20.49;73.64;98812.75;5031414;28;20033;-88
2022/06/11 04:38:58;;;;;;;62.95;50.60;;;;;;;20.46;73.72;98830.16;5032631;28;20025;-88
2022/06/11 04:41:25;;;;;;;61.22;49.17;;;;;;;21.12;74.08;98920.94;5031224;28;20033;-87
2022/06/11 04:43:50;;;;;;;62.75;50.50;;;;;;;20.87;73.84;98876.00;5032455;28;20480;-88
2022/06/11 04:46:17;;;;;;;72.43;52.53;;;;;;;20.71;74.01;98844.78;5032375;28;20033;-88
2022/06/11 04:48:43;;;;;;;67.65;50.50;;;;;;;20.72;73.90;98868.66;5031289;28;20563;-88
2022/06/11 04:51:10;;;;;;;69.05;51.85;;;;;;;20.91;73.54;98898.56;5030706;28;20057;-89
2022/06/11 04:53:36;;;;;;;63.28;47.17;;;;;;;20.90;73.71;98892.38;5032260;28;20060;-88
2022/06/11 04:56:02;;;;;;;60.42;48.92;;;;;;;20.71;73.74;98877.75;5032070;28;20064;-87
2022/06/11 04:58:28;;;;;;;57.25;44.67;;;;;;;20.64;73.74;98874.50;5030947;28;20082;-87
2022/06/11 05:00:54;;;;;;;67.70;49.97;;;;;;;21.17;73.78;98937.88;5031685;28;20525;-87
2022/06/11 05:03:20;;;;;;;60.65;47.72;;;;;;;21.18;74.16;98941.38;5030531;28;20025;-87
2022/06/11 05:05:45;;;;;;;61.65;49.75;;;;;;;19.52;73.91;98680.78;5030432;28;20025;-87
2022/06/11 05:08:13;;;;;;;59.55;49.22;;;;;;;21.16;73.94;98951.56;5030665;28;20417;-87
2022/06/11 05:10:40;;;;;;;54.95;46.67;;;;;;;21.03;73.90;98968.13;5031888;28;20037;-87
2022/06/11 05:13:07;;;;;;;46.50;41.60;;;;;;;20.92;73.91;98919.78;5030520;28;20040;-87
2022/06/11 05:15:34;;;;;;;44.95;40.15;;;;;;;20.77;73.77;98914.28;5030594;28;20029;-87
2022/06/11 05:18:00;;;;;;;40.15;35.85;;;;;;;20.22;73.73;98807.47;5030641;28;20410;-87
2022/06/11 05:20:26;;;;;;;36.38;32.28;;;;;;;20.48;73.63;98859.41;5030700;28;20021;-87
2022/06/11 05:22:51;;;;;;;40.70;36.47;;;;;;;20.45;73.80;98835.78;5030771;28;20183;-87
2022/06/11 05:25:18;;;;;;;36.85;33.22;;;;;;;21.20;73.67;98949.97;5031538;28;20032;-87
2022/06/11 05:27:46;;;;;;;35.28;31.65;;;;;;;21.17;73.48;98956.66;5030294;28;20021;-87
2022/06/11 05:30:27;;;;;;;35.17;30.70;;;;;;;21.14;73.33;98935.72;5030385;28;20520;-87
2022/06/11 05:32:53;;;;;;;32.17;28.85;;;;;;;20.50;73.41;98843.84;5031699;28;20083;-87
2022/06/11 05:35:22;;;;;;;33.70;29.88;;;;;;;20.74;73.33;98887.16;5030370;28;20018;-86
2022/06/11 05:37:50;;;;;;;31.77;28.60;;;;;;;20.75;73.27;98881.53;5030462;28;20029;-86
2022/06/11 05:40:19;;;;;;;31.20;28.15;;;;;;;20.61;73.65;98858.94;5030377;28;20029;-87
2022/06/11 05:42:47;;;;;;;29.98;26.92;;;;;;;21.34;73.34;98959.19;5030324;28;20025;-87
2022/06/11 05:45:18;;;;;;;32.80;29.23;;;;;;;21.13;73.14;98936.78;5030330;28;20490;-87
2022/06/11 05:47:44;;;;;;;32.23;28.83;;;;;;;21.06;73.50;98917.41;5031518;28;20420;-87
2022/06/11 05:50:14;;;;;;;30.67;27.58;;;;;;;21.06;73.48;98933.53;5030079;28;20399;-87
2022/06/11 05:52:45;;;;;;;30.33;26.35;;;;;;;20.74;73.36;98892.53;5029993;28;20053;-87
2022/06/11 05:55:19;;;;;;;27.42;24.65;;;;;;;21.34;73.82;98988.72;5031155;28;20060;-87
2022/06/11 05:57:47;;;;;;;29.42;26.38;;;;;;;21.05;73.28;98947.19;5031078;28;20560;-86
2022/06/11 06:00:15;;;;;;;29.48;26.58;;;;;;;21.33;73.90;98984.41;5029759;28;20391;-88
2022/06/11 06:02:42;;;;;;;28.00;25.08;;;;;;;21.42;73.90;98987.41;5031549;28;20512;-87
2022/06/11 06:05:09;;;;;;;24.67;22.15;;;;;;;21.11;73.72;98940.78;5033990;28;20036;-87
2022/06/11 06:07:34;;;;;;;25.45;22.33;;;;;;;20.92;73.86;98906.34;5035308;28;20029;-86
2022/06/11 06:10:00;;;;;;;27.90;24.90;;;;;;;20.84;73.67;98909.53;5035209;28;20434;-87
2022/06/11 06:12:30;;;;;;;26.30;23.50;;;;;;;21.14;73.77;98959.88;5034004;28;20022;-87
2022/06/11 06:15:13;;;;;;;27.92;24.63;;;;;;;21.41;73.70;98988.47;5035218;28;20053;-87
2022/06/11 06:17:39;;;;;;;25.35;22.75;;;;;;;21.41;73.78;98996.53;5033878;28;20029;-87
2022/06/11 06:20:07;;;;;;;26.05;23.33;;;;;;;20.90;73.72;98907.69;5034987;28;20047;-86
2022/06/11 06:22:33;;;;;;;26.05;23.35;;;;;;;20.92;74.17;98919.78;5033694;28;20025;-87
2022/06/11 06:24:59;;;;;;;29.63;26.60;;;;;;;21.49;74.07;98985.28;5033925;28;20414;-87
2022/06/11 06:27:25;;;;;;;23.77;21.38;;;;;;;20.93;73.90;98917.88;5033879;28;20460;-87
2022/06/11 06:29:51;;;;;;;25.38;22.75;;;;;;;21.25;74.07;98939.28;5034833;28;20096;-87
2022/06/11 06:32:17;;;;;;;25.95;23.48;;;;;;;21.22;74.21;98937.09;5034801;28;20030;-87
2022/06/11 06:34:43;;;;;;;23.33;20.98;;;;;;;21.59;74.16;98995.31;5033659;28;20025;-87
2022/06/11 06:37:09;;;;;;;25.48;22.77;;;;;;;20.34;73.81;98799.22;5034858;28;20033;-87
2022/06/11 06:39:34;;;;;;;23.73;21.23;;;;;;;21.61;74.23;98998.53;5033586;28;20025;-87
2022/06/11 06:42:01;;;;;;;24.75;21.65;;;;;;;21.64;74.34;99000.69;5033576;28;20420;-87
2022/06/11 06:44:27;;;;;;;22.60;20.40;;;;;;;21.32;73.92;98942.53;5033365;28;20032;-87
2022/06/11 06:46:53;;;;;;;24.67;22.02;;;;;;;21.72;73.83;98989.44;5033276;28;20030;-87
2022/06/11 06:49:18;;;;;;;24.85;22.17;;;;;;;21.75;73.86;98999.66;5033276;28;20032;-87
2022/06/11 06:51:44;;;;;;;23.88;21.50;;;;;;;21.51;73.92;98970.53;5033496;28;20506;-87
2022/06/11 06:54:09;;;;;;;23.67;21.23;;;;;;;21.59;73.78;98963.06;5033273;28;20033;-87
2022/06/11 06:56:35;;;;;;;23.88;21.50;;;;;;;21.48;73.58;98936.13;5031658;28;20525;-87
2022/06/11 06:59:01;;;;;;;23.20;21.00;;;;;;;21.28;73.44;98893.09;5033003;28;20025;-87
2022/06/11 07:01:28;;;;;;;23.13;20.52;;;;;;;21.92;73.39;98986.00;5031878;28;20032;-87
2022/06/11 07:03:54;;;;;;;21.02;18.70;;;;;;;21.99;73.13;98986.53;5033156;28;20112;-87
2022/06/11 07:06:21;;;;;;;21.42;19.17;;;;;;;21.73;72.62;98922.00;5033016;28;20033;-87
2022/06/11 07:08:52;;;;;;;21.48;19.35;;;;;;;21.58;72.24;98911.22;5033085;28;20060;-87
2022/06/11 07:11:18;;;;;;;23.67;21.17;;;;;;;21.66;72.24;98899.16;5031941;28;20434;-86
2022/06/11 07:13:44;;;;;;;25.35;22.95;;;;;;;22.21;72.27;98997.91;5032498;28;20025;-87
2022/06/11 07:16:11;;;;;;;21.90;19.83;;;;;;;21.52;71.92;98894.25;5031595;28;20029;-88
2022/06/11 07:18:47;;;;;;;21.38;19.33;;;;;;;22.01;72.27;98990.59;5031446;28;20487;-87
2022/06/11 07:21:18;;;;;;;21.67;19.58;;;;;;;21.78;72.26;98945.38;5032754;28;20109;-87
2022/06/11 07:23:49;;;;;;;22.95;20.60;;;;;;;21.74;72.05;98938.94;5031402;28;20037;-87
2022/06/11 07:26:19;;;;;;;20.95;18.98;;;;;;;21.55;71.98;98915.25;5031414;28;20094;-87
2022/06/11 07:28:50;;;;;;;21.50;19.50;;;;;;;22.15;72.24;99004.34;5032585;28;20029;-87
2022/06/11 07:31:16;;;;;;;21.92;19.38;;;;;;;21.80;72.35;98970.09;5032530;28;20040;-87
2022/06/11 07:33:43;;;;;;;21.23;19.27;;;;;;;21.62;72.35;98922.25;5032630;28;20033;-86
2022/06/11 07:36:10;;;;;;;19.80;18.00;;;;;;;21.29;72.30;98870.56;5031201;28;20030;-86
2022/06/11 07:38:35;;;;;;;19.92;17.95;;;;;;;21.44;72.23;98888.59;5031111;28;20025;-86
2022/06/11 07:41:02;;;;;;;19.58;17.67;;;;;;;22.00;72.37;98980.91;5032562;28;20037;-86
2022/06/11 07:43:28;;;;;;;18.90;17.20;;;;;;;22.08;72.39;98993.03;5032560;28;20036;-86
2022/06/11 07:45:54;;;;;;;19.88;18.08;;;;;;;21.55;72.22;98911.72;5031132;28;20030;-86
2022/06/11 07:48:19;;;;;;;19.25;17.38;;;;;;;22.06;72.21;99014.00;5030771;28;20509;-87
2022/06/11 07:50:47;;;;;;;19.20;17.45;;;;;;;22.06;72.59;98998.69;5031037;28;20426;-86
2022/06/11 07:53:13;;;;;;;19.20;17.50;;;;;;;21.68;72.43;98942.66;5030750;28;20026;-86
2022/06/11 07:55:44;;;;;;;18.35;16.55;;;;;;;21.38;72.31;98881.59;4991160;28;1162429;-86
2022/06/11 07:58:12;;;;;;;19.80;17.95;;;;;;;22.09;72.53;98991.97;5032117;28;20037;-86
2022/06/11 08:00:40;;;;;;;19.55;17.85;;;;;;;22.12;72.28;98992.25;5031984;28;20067;-86
2022/06/11 08:03:06;;;;;;;19.58;17.77;;;;;;;22.13;72.22;98996.56;5033256;28;20040;-86
2022/06/11 08:05:33;;;;;;;19.50;17.50;;;;;;;22.06;72.33;98992.50;5033063;28;20026;-87
2022/06/11 08:07:59;;;;;;;19.40;17.73;;;;;;;21.47;72.38;98896.91;5032970;28;20110;-86
2022/06/11 08:10:27;;;;;;;19.63;17.83;;;;;;;22.13;72.26;98993.06;5032966;28;20025;-87
2022/06/11 08:12:53;;;;;;;17.63;15.98;;;;;;;21.88;72.11;98962.34;5031564;28;20398;-86
2022/06/11 08:15:19;;;;;;;18.30;16.50;;;;;;;21.51;72.11;98905.25;5031461;28;20024;-87
2022/06/11 08:17:44;;;;;;;18.63;17.02;;;;;;;21.74;71.91;98926.28;5031539;28;20021;-87
2022/06/11 08:20:13;;;;;;;16.48;15.00;;;;;;;22.16;72.21;98997.91;5032720;28;20544;-87
2022/06/11 08:22:39;;;;;;;15.20;13.75;;;;;;;21.50;71.84;98898.28;5032498;28;20021;-87
2022/06/11 08:25:04;;;;;;;14.18;12.85;;;;;;;21.39;71.86;98878.63;5031732;28;20560;-87
2022/06/11 08:27:30;;;;;;;14.07;12.77;;;;;;;21.94;71.80;98981.97;5031135;28;20029;-87
2022/06/11 08:29:56;;;;;;;13.63;12.35;;;;;;;21.83;71.77;98945.41;5032496;28;20104;-86
2022/06/11 08:32:21;;;;;;;14.23;12.93;;;;;;;21.71;71.67;98926.03;5031114;28;20101;-87
2022/06/11 08:34:47;;;;;;;13.20;11.98;;;;;;;22.15;71.79;98989.03;5031154;28;20022;-87
2022/06/11 08:37:14;;;;;;;14.90;13.40;;;;;;;22.22;71.47;98988.75;5031149;28;20033;-86
2022/06/11 08:39:40;;;;;;;13.70;12.43;;;;;;;21.39;71.45;98884.00;5032176;28;20086;-86
2022/06/11 08:42:07;;;;;;;16.70;15.20;;;;;;;21.78;71.12;98919.31;5032264;28;20516;-86
2022/06/11 08:44:36;;;;;;;16.50;15.00;;;;;;;21.74;71.33;98910.16;5031018;28;20068;-87
2022/06/11 08:47:10;;;;;;;16.75;15.20;;;;;;;22.15;71.67;98991.72;5032419;28;20165;-86
2022/06/11 08:49:45;;;;;;;18.65;16.85;;;;;;;21.82;71.19;98949.16;5031107;28;20017;-87
2022/06/11 08:52:15;;;;;;;16.42;14.95;;;;;;;21.61;71.50;98917.94;5032447;28;20522;-87
2022/06/11 08:54:44;;;;;;;19.83;17.90;;;;;;;22.14;71.71;98990.09;5032329;28;20053;-87
2022/06/11 08:57:28;;;;;;;16.00;14.55;;;;;;;22.16;71.20;98990.63;5031301;28;20029;-87
2022/06/11 09:00:26;;;;;;;16.90;15.27;;;;;;;22.09;70.96;98995.47;5030894;28;20120;-87
2022/06/11 09:03:07;;;;;;;13.25;12.02;;;;;;;22.05;70.73;98990.88;5008879;28;20033;-88
2022/06/11 09:05:51;;;;;;;12.18;10.93;;;;;;;21.87;70.57;98995.66;5032154;28;20025;-87
2022/06/11 09:08:28;;;;;;;12.57;11.43;;;;;;;21.79;71.06;99001.56;5030843;28;20037;-87
2022/06/11 09:11:27;;;;;;;12.02;10.82;;;;;;;21.66;70.86;98998.56;5030725;28;20140;-87
2022/06/11 09:14:10;;;;;;;10.73;9.77;;;;;;;21.67;71.33;99008.22;5031699;28;20108;-87
2022/06/11 09:16:48;;;;;;;9.05;8.25;;;;;;;21.62;71.14;98989.41;5030444;28;20022;-86
2022/06/11 09:19:41;;;;;;;8.27;7.57;;;;;;;21.69;70.93;98990.78;5031982;28;20021;-88
2022/06/11 09:22:27;;;;;;;5.30;4.80;;;;;;;21.07;69.43;98864.53;5031611;28;20093;-88
2022/06/11 09:24:52;;;;;;;5.30;4.80;;;;;;;22.05;69.11;98982.81;5031547;28;20022;-88
2022/06/11 09:27:31;;;;;;;3.97;3.67;;;;;;;22.25;68.03;98984.72;5030498;28;20112;-86
2022/06/11 09:30:16;;;;;;;4.60;4.20;;;;;;;22.45;65.60;98990.16;5030491;28;20056;-87
2022/06/11 09:32:45;;;;;;;4.25;3.85;;;;;;;22.49;64.52;98988.53;5030380;28;20079;-89
2022/06/11 09:35:27;;;;;;;7.10;4.60;;;;;;;22.22;64.25;98955.69;5030223;28;20022;-88
2022/06/11 09:37:58;;;;;;;5.25;3.63;;;;;;;22.49;63.08;98981.28;5030300;28;20021;-88
2022/06/11 09:40:42;;;;;;;6.10;3.67;;;;;;;22.15;61.40;98937.13;5030146;28;20079;-87
2022/06/11 09:43:36;;;;;;;5.65;4.05;;;;;;;21.94;62.44;98898.66;5030380;28;20521;-88
2022/06/11 09:46:17;;;;;;;3.58;3.28;;;;;;;22.19;62.39;98947.06;5031319;28;20025;-88
2022/06/11 09:49:01;;;;;;;4.40;3.20;;;;;;;22.40;62.23;98974.00;5030130;28;20026;-88
2022/06/11 09:51:45;;;;;;;6.35;3.88;;;;;;;22.35;61.92;98974.81;5030133;28;20075;-88
2022/06/11 09:54:33;;;;;;;5.70;4.57;;;;;;;22.25;62.65;98973.97;5029935;28;20041;-88
2022/06/11 09:57:14;;;;;;;5.82;5.22;;;;;;;22.22;62.56;98959.19;5010342;28;20038;-87
2022/06/11 09:59:43;;;;;;;;;;;;;;;22.05;63.99;98977.44;5010867;28;20443;-88
2022/06/11 10:02:18;;;;;;;7.70;5.50;;;;;;;22.09;64.07;98984.72;5010268;28;19909;-88
2022/06/11 10:04:45;;;;;;;10.07;6.28;;;;;;;22.16;64.01;98987.13;5010399;28;20388;-88
2022/06/11 10:07:16;;;;;;;11.35;8.98;;;;;;;22.16;64.19;98974.50;5010365;28;20083;-88
2022/06/11 10:09:45;;;;;;;9.02;7.25;;;;;;;22.28;64.00;98984.19;5010407;28;20021;-88
2022/06/11 10:12:25;;;;;;;8.77;6.90;;;;;;;22.42;63.80;98991.50;5010283;28;20418;-88
2022/06/11 10:15:02;;;;;;;9.85;8.50;;;;;;;22.37;63.08;98967.28;5011587;28;20021;-87
2022/06/11 10:17:37;;;;;;;12.40;10.10;;;;;;;22.14;63.15;98892.50;5011533;28;20164;-87
2022/06/11 10:20:11;;;;;;;9.20;8.20;;;;;;;22.71;62.75;98948.69;5010128;28;20022;-87
2022/06/11 10:22:46;;;;;;;9.38;8.10;;;;;;;23.29;61.34;98932.97;5011368;28;20033;-87
2022/06/11 10:25:22;;;;;;;6.78;4.90;;;;;;;24.00;58.96;98954.19;5011059;28;20038;-87
2022/06/11 10:27:56;;;;;;;5.57;5.03;;;;;;;24.01;57.81;98920.75;5010251;28;20048;-87
2022/06/11 10:30:55;;;;;;;4.63;4.20;;;;;;;24.73;56.72;98969.59;5016175;28;20057;-87
2022/06/11 10:33:28;;;;;;;3.80;2.88;;;;;;;24.07;51.86;98857.59;5018365;28;20100;-86
2022/06/11 10:36:22;;;;;;;3.95;2.35;;;;;;;24.86;49.88;98970.81;5021422;28;20068;-87
2022/06/11 10:38:57;;;;;;;5.93;5.35;;;;;;;25.30;52.02;98976.06;5010253;28;20419;-87
2022/06/11 10:41:46;;;;;;;4.22;3.65;;;;;;;25.84;51.10;98977.56;5011098;28;20022;-87
2022/06/11 10:44:30;;;;;;;4.43;3.10;;;;;;;26.16;49.87;98984.97;5010783;28;20041;-87
2022/06/11 10:46:56;;;;;;;5.85;2.60;;;;;;;25.54;48.54;98857.09;5009885;28;20057;-87
2022/06/11 10:49:24;;;;;;;4.63;2.90;;;;;;;25.95;49.07;98968.19;5012220;28;20108;-87
2022/06/11 10:52:03;;;;;;;4.38;3.08;;;;;;;25.89;49.73;98986.41;5013378;28;20030;-87
2022/06/11 10:54:28;;;;;;;3.83;3.28;;;;;;;25.44;51.00;98966.16;5014137;28;20097;-87
2022/06/11 10:57:03;;;;;;;4.10;3.60;;;;;;;25.25;51.98;98959.88;5033210;28;20057;-87
2022/06/11 10:59:43;;;;;;;9.05;5.78;;;;;;;24.80;52.86;98896.34;5034249;28;20033;-87
2022/06/11 11:02:33;;;;;;;8.65;5.85;;;;;;;25.51;52.79;98984.72;5032978;28;20632;-87
2022/06/11 11:04:59;;;;;;;8.43;7.63;;;;;;;25.74;52.87;98972.28;5034056;28;20026;-87
2022/06/11 11:07:25;;;;;;;7.75;5.72;;;;;;;25.94;52.87;98977.41;5034003;28;20032;-87
2022/06/11 11:09:57;;;;;;;7.35;5.90;;;;;;;25.56;52.36;98917.88;5032646;28;20510;-87
2022/06/11 11:12:34;;;;;;;9.93;6.22;;;;;;;25.90;53.11;98979.91;5032640;28;20033;-87
2022/06/11 11:15:13;;;;;;;11.05;9.95;;;;;;;25.42;53.88;98952.13;5032672;28;20521;-87
2022/06/11 11:17:48;;;;;;;7.75;6.95;;;;;;;25.03;54.24;98925.28;5034148;28;20029;-87
2022/06/11 11:20:34;;;;;;;10.35;9.30;;;;;;;24.83;54.65;98898.47;5032624;28;20018;-87
2022/06/11 11:23:34;;;;;;;15.38;11.80;;;;;;;25.01;54.56;98913.97;5032401;28;20075;-86
2022/06/11 11:26:06;;;;;;;9.00;8.10;;;;;;;24.63;55.33;98872.50;5027891;28;20033;-88
2022/06/11 11:28:44;;;;;;;6.40;5.80;;;;;;;24.98;55.65;98936.94;5033721;28;20021;-87
2022/06/11 11:31:20;;;;;;;6.53;5.15;;;;;;;24.63;55.32;98894.91;5033622;28;20104;-87
2022/06/11 11:34:11;;;;;;;8.30;4.63;;;;;;;24.49;55.76;98907.44;5033530;28;20022;-87
2022/06/11 11:36:37;;;;;;;;;;;;;;;24.55;56.95;98979.19;5031407;28;20029;-87
2022/06/11 11:39:19;;;;;;;8.95;6.63;;;;;;;24.07;57.00;98935.81;5032311;28;19909;-87
2022/06/11 11:41:51;;;;;;;6.13;4.03;;;;;;;24.19;57.57;98985.91;5032128;28;20031;-87